createdAt,value
2019-04-11T00:02:28.901Z,102197.81
2019-04-11T00:04:58.781Z,102202.69
2019-04-11T00:07:28.094Z,102196.58
2019-04-11T00:09:57.311Z,102204.08
2019-04-11T00:12:26.398Z,102204.08
2019-04-11T00:14:56.049Z,102204.54
2019-04-11T00:17:25.873Z,102200.98
2019-04-11T00:19:55.810Z,102212.44
2019-04-11T00:22:25.677Z,102212.50
2019-04-11T00:24:55.545Z,102209.91
2019-04-11T00:27:25.295Z,102214.28
2019-04-11T00:29:55.468Z,102214.39
2019-04-11T00:32:25.404Z,102215.74
2019-04-11T00:34:55.319Z,102218.83
2019-04-11T00:37:25.300Z,102219.30
2019-04-11T00:39:56.180Z,102222.81
2019-04-11T00:42:26.252Z,102227.23
2019-04-11T00:44:57.045Z,102221.97
2019-04-11T00:47:26.496Z,102222.46
2019-04-11T00:49:56.846Z,102222.46
2019-04-11T00:52:27.816Z,102226.45
2019-04-11T00:54:57.409Z,102224.28
2019-04-11T00:57:26.565Z,102228.65
2019-04-11T00:59:56.475Z,102183.85
2019-04-11T01:02:25.984Z,102190.92
2019-04-11T01:04:55.356Z,102223.81
2019-04-11T01:07:24.963Z,102233.91
2019-04-11T01:09:54.874Z,102234.80
2019-04-11T01:12:24.776Z,102239.56
2019-04-11T01:14:55.222Z,102234.73
2019-04-11T01:17:25.469Z,102239.92
2019-04-11T01:19:55.623Z,102239.03
2019-04-11T01:22:26.432Z,102239.03
2019-04-11T01:24:56.387Z,102235.86
2019-04-11T01:27:26.202Z,102239.27
2019-04-11T01:29:55.978Z,102251.03
2019-04-11T01:32:26.399Z,102245.31
2019-04-11T01:34:57.258Z,102244.92
2019-04-11T01:37:26.536Z,102240.16
2019-04-11T01:39:59.364Z,102248.59
2019-04-11T01:42:29.119Z,102244.68
2019-04-11T01:44:58.566Z,102245.61
2019-04-11T01:47:57.318Z,102222.95
2019-04-11T01:50:29.895Z,102250.41
2019-04-11T01:53:00.448Z,102252.53
2019-04-11T01:55:29.800Z,102246.84
2019-04-11T01:57:58.989Z,102255.17
2019-04-11T02:00:50.929Z,102259.54
2019-04-11T02:03:25.603Z,102262.20
2019-04-11T02:05:54.690Z,102258.30
2019-04-11T02:08:25.026Z,102255.59
2019-04-11T02:10:54.585Z,102255.48
2019-04-11T02:13:24.189Z,102259.42
2019-04-11T02:15:56.733Z,102260.73
2019-04-11T02:18:25.587Z,102261.16
2019-04-11T02:20:55.749Z,102265.92
2019-04-11T02:23:39.370Z,102267.16
2019-04-11T02:26:18.879Z,102265.84
2019-04-11T02:28:48.785Z,102266.62
2019-04-11T02:31:20.412Z,102273.50
2019-04-11T02:33:51.166Z,102275.23
2019-04-11T02:36:20.814Z,102278.67
2019-04-11T02:38:56.036Z,102279.10
2019-04-11T02:41:21.863Z,102283.39
2019-04-11T02:44:01.601Z,102281.61
2019-04-11T02:46:38.511Z,102282.45
2019-04-11T02:49:03.345Z,102289.45
2019-04-11T02:51:32.462Z,102295.13
2019-04-11T02:54:02.387Z,102299.88
2019-04-11T02:56:35.719Z,102292.84
2019-04-11T02:59:05.457Z,102293.27
2019-04-11T03:01:36.458Z,102294.92
2019-04-11T03:04:07.240Z,102295.72
2019-04-11T03:06:39.254Z,102295.60
2019-04-11T03:09:10.920Z,102299.92
2019-04-11T03:11:40.981Z,102303.34
2019-04-11T03:14:13.914Z,102299.61
2019-04-11T03:16:56.710Z,102301.25
2019-04-11T03:19:29.633Z,102306.47
2019-04-11T03:21:47.372Z,102306.80
2019-04-11T03:24:17.668Z,102304.08
2019-04-11T03:26:49.733Z,102306.55
2019-04-11T03:29:19.916Z,102304.22
2019-04-11T03:32:33.713Z,102309.32
2019-04-11T03:37:18.956Z,102307.16
2019-04-11T03:39:43.995Z,102308.37
2019-04-11T03:42:09.483Z,102310.84
2019-04-11T03:44:32.964Z,102311.16
2019-04-11T03:47:14.732Z,102317.11
2019-04-11T03:49:37.541Z,102325.77
2019-04-11T03:51:59.299Z,102321.67
2019-04-11T03:54:29.467Z,102323.30
2019-04-11T03:56:59.401Z,102327.54
2019-04-11T03:59:31.159Z,102323.88
2019-04-11T04:02:00.809Z,102330.67
2019-04-11T04:04:30.569Z,102330.11
2019-04-11T04:07:00.186Z,102338.37
2019-04-11T04:09:29.919Z,102341.27
2019-04-11T04:11:59.732Z,102343.41
2019-04-11T04:14:51.565Z,102344.62
2019-04-11T04:17:32.849Z,102336.58
2019-04-11T04:20:11.147Z,102343.48
2019-04-11T04:23:00.914Z,102350.34
2019-04-11T04:25:30.156Z,102349.30
2019-04-11T04:27:59.553Z,102347.07
2019-04-11T04:30:29.903Z,102356.61
2019-04-11T04:33:00.652Z,102355.67
2019-04-11T04:35:31.672Z,102353.92
2019-04-11T04:38:03.032Z,102350.36
2019-04-11T04:40:49.604Z,102362.63
2019-04-11T04:43:07.488Z,102362.20
2019-04-11T04:45:54.117Z,102366.14
2019-04-11T04:48:11.160Z,102368.28
2019-04-11T04:50:39.190Z,102363.52
2019-04-11T04:53:09.227Z,102369.59
2019-04-11T04:55:39.211Z,102371.27
2019-04-11T04:58:09.182Z,102370.38
2019-04-11T05:00:43.663Z,102374.23
2019-04-11T05:03:13.520Z,102368.00
2019-04-11T05:05:44.254Z,102377.12
2019-04-11T05:08:14.471Z,102372.45
2019-04-11T05:10:44.973Z,102380.87
2019-04-11T05:13:15.514Z,102376.52
2019-04-11T05:15:45.405Z,102378.83
2019-04-11T05:18:17.323Z,102374.00
2019-04-11T05:20:46.317Z,102379.27
2019-04-11T05:23:15.413Z,102375.91
2019-04-11T05:25:44.658Z,102383.01
2019-04-11T05:28:14.146Z,102377.47
2019-04-11T05:30:45.029Z,102377.64
2019-04-11T05:33:14.596Z,102378.69
2019-04-11T05:35:43.797Z,102389.90
2019-04-11T05:38:12.891Z,102389.05
2019-04-11T05:40:42.022Z,102391.31
2019-04-11T05:43:11.468Z,102394.27
2019-04-11T05:45:40.767Z,102397.58
2019-04-11T05:48:15.718Z,102399.45
2019-04-11T05:50:48.438Z,102406.63
2019-04-11T05:53:15.861Z,102407.95
2019-04-11T05:55:47.480Z,102404.86
2019-04-11T05:58:17.693Z,102405.40
2019-04-11T06:00:59.702Z,102405.16
2019-04-11T06:03:30.247Z,102403.45
2019-04-11T06:06:10.819Z,102400.39
2019-04-11T06:08:41.971Z,102405.89
2019-04-11T06:11:45.463Z,102409.84
2019-04-11T06:14:37.566Z,102416.23
2019-04-11T06:17:09.966Z,102415.36
2019-04-11T06:20:04.305Z,102413.02
2019-04-11T06:22:35.936Z,102413.42
2019-04-11T06:25:35.870Z,102408.34
2019-04-11T06:28:18.555Z,102421.56
2019-04-11T06:31:06.057Z,102423.44
2019-04-11T06:33:37.938Z,102422.45
2019-04-11T06:36:18.127Z,102426.09
2019-04-11T06:39:19.078Z,102429.63
2019-04-11T06:42:21.549Z,102437.80
2019-04-11T06:45:29.406Z,102436.58
2019-04-11T06:48:29.684Z,102442.59
2019-04-11T06:51:28.164Z,102448.94
2019-04-11T06:54:15.295Z,102441.98
2019-04-11T06:56:47.477Z,102447.62
2019-04-11T06:59:20.607Z,102452.39
2019-04-11T07:01:50.872Z,102456.34
2019-04-11T07:04:46.304Z,102455.70
2019-04-11T07:07:16.362Z,102464.77
2019-04-11T07:09:49.235Z,102454.70
2019-04-11T07:12:24.358Z,102457.09
2019-04-11T07:14:58.449Z,102461.50
2019-04-11T07:17:58.980Z,102463.64
2019-04-11T07:21:03.020Z,102463.72
2019-04-11T07:23:51.354Z,102463.29
2019-04-11T07:26:30.598Z,102463.22
2019-04-11T07:29:21.915Z,102461.72
2019-04-11T07:32:11.696Z,102461.03
2019-04-11T07:35:00.140Z,102462.84
2019-04-11T07:37:34.346Z,102468.22
2019-04-11T07:40:26.780Z,102469.02
2019-04-11T07:43:16.875Z,102466.38
2019-04-11T07:46:24.585Z,102472.47
2019-04-11T07:49:01.712Z,102474.18
2019-04-11T07:51:36.400Z,102476.35
2019-04-11T07:54:12.204Z,102483.55
2019-04-11T07:57:04.238Z,102488.46
2019-04-11T08:00:12.861Z,102480.91
2019-04-11T08:03:07.881Z,102482.30
2019-04-11T08:05:54.763Z,102483.78
2019-04-11T08:08:43.459Z,102483.21
2019-04-11T08:11:17.823Z,102483.89
2019-04-11T08:14:04.786Z,102484.93
2019-04-11T08:16:51.773Z,102485.45
2019-04-11T08:19:39.086Z,102493.80
2019-04-11T08:22:30.725Z,102491.80
2019-04-11T08:25:07.214Z,102494.02
2019-04-11T08:27:50.937Z,102492.96
2019-04-11T08:30:11.089Z,102489.81
2019-04-11T08:32:55.457Z,102493.12
2019-04-11T08:35:50.186Z,102492.27
2019-04-11T08:38:32.733Z,102485.70
2019-04-11T08:41:09.405Z,102486.66
2019-04-11T08:43:39.352Z,102481.83
2019-04-11T08:46:24.998Z,102482.28
2019-04-11T08:48:57.400Z,102485.34
2019-04-11T08:51:29.331Z,102494.44
2019-04-11T08:54:17.488Z,102498.40
2019-04-11T08:56:47.441Z,102495.23
2019-04-11T08:59:37.672Z,102501.27
2019-04-11T09:02:08.708Z,102501.72
2019-04-11T09:05:12.069Z,102506.22
2019-04-11T09:07:54.109Z,102499.52
2019-04-11T09:10:42.358Z,102499.61
2019-04-11T09:13:22.929Z,102508.00
2019-04-11T09:16:10.175Z,102501.03
2019-04-11T09:18:39.522Z,102503.00
2019-04-11T09:21:40.395Z,102502.08
2019-04-11T09:24:24.311Z,102506.86
2019-04-11T09:27:16.839Z,102508.59
2019-04-11T09:29:50.374Z,102504.25
2019-04-11T09:32:42.482Z,102505.72
2019-04-11T09:35:22.088Z,102502.63
2019-04-11T09:37:52.289Z,102501.51
2019-04-11T09:40:52.655Z,102495.82
2019-04-11T09:43:24.311Z,102501.09
2019-04-11T09:46:10.331Z,102511.22
2019-04-11T09:49:06.669Z,102505.00
2019-04-11T09:52:07.363Z,102510.88
2019-04-11T09:54:56.812Z,102505.23
2019-04-11T09:57:38.352Z,102512.33
2019-04-11T10:00:28.737Z,102506.51
2019-04-11T10:03:09.089Z,102511.33
2019-04-11T10:05:46.947Z,102512.70
2019-04-11T10:08:35.507Z,102511.31
2019-04-11T10:11:24.120Z,102507.34
2019-04-11T10:14:09.268Z,102509.62
2019-04-11T10:16:56.300Z,102510.20
2019-04-11T10:19:44.344Z,102506.30
2019-04-11T10:22:48.519Z,102513.67
2019-04-11T10:25:30.804Z,102504.50
2019-04-11T10:28:21.717Z,102504.63
2019-04-11T10:31:23.754Z,102505.13
2019-04-11T10:34:24.079Z,102509.16
2019-04-11T10:37:07.527Z,102507.08
2019-04-11T10:40:00.098Z,102507.97
2019-04-11T10:42:31.059Z,102510.96
2019-04-11T10:45:25.397Z,102508.19
2019-04-11T10:48:09.618Z,102503.33
2019-04-11T10:51:10.838Z,102512.70
2019-04-11T10:53:43.747Z,102513.17
2019-04-11T10:56:53.675Z,102512.32
2019-04-11T10:59:28.025Z,102495.58
2019-04-11T11:02:08.635Z,102514.69
2019-04-11T11:04:45.025Z,102512.50
2019-04-11T11:07:18.283Z,102515.22
2019-04-11T11:10:07.176Z,102511.27
2019-04-11T11:12:59.417Z,102513.47
2019-04-11T11:15:42.265Z,102517.85
2019-04-11T11:19:01.962Z,102509.09
2019-04-11T11:21:17.623Z,102518.48
2019-04-11T11:24:07.676Z,102510.55
2019-04-11T11:26:39.309Z,102507.02
2019-04-11T11:29:47.348Z,102506.17
2019-04-11T11:32:25.186Z,102510.59
2019-04-11T11:34:59.654Z,102512.81
2019-04-11T11:37:53.956Z,102510.14
2019-04-11T11:40:52.144Z,102518.51
2019-04-11T11:43:23.868Z,102529.53
2019-04-11T11:46:12.180Z,102524.53
2019-04-11T11:48:46.382Z,102523.66
2019-04-11T11:51:37.515Z,102525.44
2019-04-11T11:54:15.602Z,102524.39
2019-04-11T11:56:46.420Z,102523.45
2019-04-11T11:59:36.385Z,102527.92
2019-04-11T12:02:09.118Z,102532.26
2019-04-11T12:05:07.826Z,102529.03
2019-04-11T12:07:39.473Z,102532.55
2019-04-11T12:10:26.619Z,102534.35
2019-04-11T12:13:14.705Z,102528.17
2019-04-11T12:16:02.086Z,102531.17
2019-04-11T12:18:51.695Z,102525.46
2019-04-11T12:21:26.364Z,102527.22
2019-04-11T12:24:32.390Z,102522.84
2019-04-11T12:27:20.573Z,102526.03
2019-04-11T12:30:23.469Z,102531.44
2019-04-11T12:33:01.548Z,102527.98
2019-04-11T12:35:57.947Z,102528.88
2019-04-11T12:38:49.836Z,102524.42
2019-04-11T12:41:36.586Z,102520.97
2019-04-11T12:44:26.684Z,102523.13
2019-04-11T12:47:15.223Z,102521.80
2019-04-11T12:50:10.101Z,102527.02
2019-04-11T12:52:42.565Z,102522.98
2019-04-11T12:55:15.203Z,102521.63
2019-04-11T12:58:09.712Z,102522.52
2019-04-11T13:00:59.360Z,102521.16
2019-04-11T13:03:46.905Z,102515.41
2019-04-11T13:06:34.853Z,102518.84
2019-04-11T13:09:13.984Z,102517.00
2019-04-11T13:11:44.696Z,102516.12
2019-04-11T13:14:34.408Z,102519.30
2019-04-11T13:17:04.931Z,102521.08
2019-04-11T13:20:04.085Z,102518.90
2019-04-11T13:22:25.170Z,102514.81
2019-04-11T13:25:12.067Z,102513.03
2019-04-11T13:27:48.276Z,102520.12
2019-04-11T13:30:38.832Z,102522.74
2019-04-11T13:33:36.837Z,102520.05
2019-04-11T13:36:23.786Z,102527.09
2019-04-11T13:38:53.036Z,102521.36
2019-04-11T13:41:57.023Z,102524.85
2019-04-11T13:44:32.439Z,102528.02
2019-04-11T13:47:23.572Z,102518.33
2019-04-11T13:49:57.336Z,102520.59
2019-04-11T13:52:45.637Z,102523.27
2019-04-11T13:55:20.946Z,102518.84
2019-04-11T13:58:12.081Z,102513.13
2019-04-11T14:00:57.888Z,102518.86
2019-04-11T14:03:49.580Z,102518.33
2019-04-11T14:06:34.961Z,102519.14
2019-04-11T14:09:23.912Z,102511.63
2019-04-11T14:12:05.720Z,102508.90
2019-04-11T14:14:40.209Z,102507.15
2019-04-11T14:17:18.284Z,102512.45
2019-04-11T14:20:02.998Z,102512.45
2019-04-11T14:22:43.411Z,102511.61
2019-04-11T14:25:21.723Z,102505.45
2019-04-11T14:27:53.501Z,102502.36
2019-04-11T14:30:38.661Z,102509.38
2019-04-11T14:33:08.443Z,102508.42
2019-04-11T14:36:08.724Z,102508.92
2019-04-11T14:38:47.941Z,102503.59
2019-04-11T14:41:28.228Z,102502.18
2019-04-11T14:44:02.901Z,102501.83
2019-04-11T14:46:52.415Z,102495.73
2019-04-11T14:49:24.021Z,102499.71
2019-04-11T14:52:17.272Z,102495.78
2019-04-11T14:54:51.385Z,102494.01
2019-04-11T14:57:55.057Z,102493.59
2019-04-11T15:00:36.561Z,102490.51
2019-04-11T15:03:44.240Z,102491.27
2019-04-11T15:06:31.455Z,102497.91
2019-04-11T15:09:31.923Z,102489.47
2019-04-11T15:12:05.276Z,102493.98
2019-04-11T15:14:55.017Z,102495.80
2019-04-11T15:17:37.984Z,102487.88
2019-04-11T15:20:24.345Z,102491.36
2019-04-11T15:22:59.722Z,102494.95
2019-04-11T15:26:09.293Z,102500.25
2019-04-11T15:29:13.610Z,102491.44
2019-04-11T15:32:12.970Z,102494.11
2019-04-11T15:34:52.885Z,102490.97
2019-04-11T15:37:50.273Z,102489.23
2019-04-11T15:40:50.617Z,102487.49
2019-04-11T15:43:42.640Z,102488.02
2019-04-11T15:46:21.699Z,102486.30
2019-04-11T15:49:20.480Z,102488.94
2019-04-11T15:51:52.593Z,102489.78
2019-04-11T15:54:44.510Z,102487.13
2019-04-11T15:57:32.884Z,102491.99
2019-04-11T16:00:30.631Z,102483.58
2019-04-11T16:03:29.005Z,102483.55
2019-04-11T16:06:15.905Z,102487.51
2019-04-11T16:08:52.263Z,102486.14
2019-04-11T16:11:41.315Z,102486.56
2019-04-11T16:14:21.151Z,102494.03
2019-04-11T16:17:13.760Z,102493.16
2019-04-11T16:20:00.967Z,102492.31
2019-04-11T16:23:08.051Z,102492.72
2019-04-11T16:25:49.990Z,102500.70
2019-04-11T16:28:42.124Z,102496.77
2019-04-11T16:31:13.841Z,102491.89
2019-04-11T16:33:54.791Z,102495.02
2019-04-11T16:36:41.969Z,102494.09
2019-04-11T16:39:50.332Z,102498.06
2019-04-11T16:42:21.823Z,102503.68
2019-04-11T16:45:18.445Z,102507.09
2019-04-11T16:48:15.659Z,102507.89
2019-04-11T16:50:44.980Z,102502.54
2019-04-11T16:53:14.225Z,102506.95
2019-04-11T16:55:43.792Z,102510.48
2019-04-11T16:58:16.948Z,102511.33
2019-04-11T17:00:45.910Z,102505.16
2019-04-11T17:03:17.190Z,102515.71
2019-04-11T17:05:55.996Z,102511.76
2019-04-11T17:08:38.223Z,102513.05
2019-04-11T17:11:09.697Z,102518.33
2019-04-11T17:13:39.100Z,102520.02
2019-04-11T17:16:16.022Z,102534.09
2019-04-11T17:18:46.403Z,102532.30
2019-04-11T17:21:16.214Z,102537.11
2019-04-11T17:23:47.169Z,102536.11
2019-04-11T17:26:16.845Z,102533.80
2019-04-11T17:28:46.985Z,102536.92
2019-04-11T17:31:18.599Z,102538.16
2019-04-11T17:33:50.373Z,102534.61
2019-04-11T17:36:19.174Z,102546.48
2019-04-11T17:38:48.690Z,102532.73
2019-04-11T17:41:18.173Z,102540.62
2019-04-11T17:43:51.365Z,102542.78
2019-04-11T17:46:18.544Z,102546.27
2019-04-11T17:48:50.301Z,102549.74
2019-04-11T17:51:18.275Z,102556.75
2019-04-11T17:53:47.471Z,102556.33
2019-04-11T17:56:16.984Z,102558.00
2019-04-11T17:58:46.247Z,102558.80
2019-04-11T18:01:15.510Z,102561.36
2019-04-11T18:03:45.248Z,102566.63
2019-04-11T18:06:16.884Z,102568.72
2019-04-11T18:08:46.716Z,102572.19
2019-04-11T18:11:17.352Z,102487.84
2019-04-11T18:13:48.537Z,102575.66
2019-04-11T18:16:20.169Z,102575.20
2019-04-11T18:18:49.620Z,102582.63
2019-04-11T18:21:19.038Z,102575.97
2019-04-11T18:23:50.078Z,102590.03
2019-04-11T18:26:21.466Z,102589.11
2019-04-11T18:28:51.971Z,102596.54
2019-04-11T18:31:24.976Z,102596.02
2019-04-11T18:33:54.895Z,102592.91
2019-04-11T18:36:25.264Z,102601.27
2019-04-11T18:38:55.381Z,102602.98
2019-04-11T18:41:25.324Z,102602.13
2019-04-11T18:43:55.023Z,102609.58
2019-04-11T18:46:25.016Z,102611.33
2019-04-11T18:48:54.689Z,102611.75
2019-04-11T18:51:24.191Z,102612.19
2019-04-11T18:53:54.722Z,102617.40
2019-04-11T18:56:24.045Z,102620.00
2019-04-11T18:58:53.048Z,102520.59
2019-04-11T19:01:22.126Z,102615.25
2019-04-11T19:03:51.154Z,102620.00
2019-04-11T19:06:27.630Z,102621.75
2019-04-11T19:08:50.779Z,102623.50
2019-04-11T19:11:19.951Z,102623.04
2019-04-11T19:13:48.945Z,102619.05
2019-04-11T19:16:17.981Z,102624.29
2019-04-11T19:18:47.798Z,102628.25
2019-04-11T19:21:21.195Z,102627.75
2019-04-11T19:23:50.239Z,102631.31
2019-04-11T19:26:19.258Z,102630.00
2019-04-11T19:28:49.265Z,102631.31
2019-04-11T19:31:18.225Z,102635.20
2019-04-11T19:33:49.504Z,102632.14
2019-04-11T19:36:18.754Z,102627.69
2019-04-11T19:38:47.865Z,102631.61
2019-04-11T19:41:20.498Z,102632.06
2019-04-11T19:43:49.906Z,102633.39
2019-04-11T19:46:20.461Z,102634.70
2019-04-11T19:48:50.323Z,102639.52
2019-04-11T19:51:19.359Z,102635.09
2019-04-11T19:53:49.992Z,102640.34
2019-04-11T19:56:29.099Z,102642.55
2019-04-11T19:59:02.015Z,102641.23
2019-04-11T20:01:30.733Z,102642.16
2019-04-11T20:03:59.861Z,102639.52
2019-04-11T20:06:29.152Z,102639.05
2019-04-11T20:09:01.531Z,102638.98
2019-04-11T20:11:30.343Z,102642.48
2019-04-11T20:14:03.182Z,102642.09
2019-04-11T20:16:41.098Z,102642.91
2019-04-11T20:19:03.196Z,102638.45
2019-04-11T20:21:47.192Z,102642.41
2019-04-11T20:24:33.045Z,102642.83
2019-04-11T20:27:07.092Z,102643.72
2019-04-11T20:29:38.053Z,102643.73
2019-04-11T20:32:15.298Z,102646.79
2019-04-11T20:34:50.477Z,102640.66
2019-04-11T20:37:39.418Z,102647.25
2019-04-11T20:40:11.429Z,102651.22
2019-04-11T20:42:43.712Z,102645.90
2019-04-11T20:45:18.943Z,102647.61
2019-04-11T20:47:53.827Z,102649.32
2019-04-11T20:50:24.615Z,102648.00
2019-04-11T20:52:55.455Z,102650.64
2019-04-11T20:55:24.887Z,102658.12
2019-04-11T20:57:57.736Z,102653.70
2019-04-11T21:00:50.625Z,102647.50
2019-04-11T21:03:22.502Z,102650.95
2019-04-11T21:05:51.819Z,102651.34
2019-04-11T21:08:21.988Z,102647.77
2019-04-11T21:10:50.842Z,102649.12
2019-04-11T21:13:19.775Z,102651.30
2019-04-11T21:15:48.758Z,102651.30
2019-04-11T21:18:17.651Z,102659.64
2019-04-11T21:20:46.801Z,102656.97
2019-04-11T21:23:24.336Z,102657.81
2019-04-11T21:25:46.904Z,102648.98
2019-04-11T21:28:16.074Z,102656.85
2019-04-11T21:30:44.862Z,102657.23
2019-04-11T21:33:15.627Z,102656.31
2019-04-11T21:35:44.793Z,102652.31
2019-04-11T21:38:13.988Z,102652.70
2019-04-11T21:40:44.602Z,102655.34
2019-04-11T21:43:16.075Z,102657.08
2019-04-11T21:45:45.881Z,102658.31
2019-04-11T21:48:15.013Z,102661.81
2019-04-11T21:50:44.048Z,102661.77
2019-04-11T21:53:14.337Z,102661.72
2019-04-11T21:55:47.164Z,102662.20
2019-04-11T21:58:14.586Z,102661.30
2019-04-11T22:00:46.894Z,102657.65
2019-04-11T22:03:15.993Z,102656.67
2019-04-11T22:05:44.871Z,102659.27
2019-04-11T22:08:13.884Z,102662.72
2019-04-11T22:10:42.717Z,102659.95
2019-04-11T22:13:11.668Z,102662.59
2019-04-11T22:15:42.517Z,102662.97
2019-04-11T22:18:15.900Z,102663.73
2019-04-11T22:20:41.886Z,102664.50
2019-04-11T22:23:11.068Z,102665.69
2019-04-11T22:25:39.817Z,102664.73
2019-04-11T22:28:08.894Z,102667.25
2019-04-11T22:30:38.075Z,102666.30
2019-04-11T22:33:13.698Z,102672.80
2019-04-11T22:35:42.463Z,102672.23
2019-04-11T22:38:11.740Z,102673.84
2019-04-11T22:40:40.720Z,102679.01
2019-04-11T22:43:22.522Z,102674.55
2019-04-11T22:45:40.576Z,102670.92
2019-04-11T22:48:09.474Z,102669.98
2019-04-11T22:50:40.756Z,102673.80
2019-04-11T22:53:12.804Z,102683.74
2019-04-11T22:55:41.292Z,102678.81
2019-04-11T22:58:13.988Z,102682.27
2019-04-11T23:00:45.009Z,102679.12
2019-04-11T23:03:31.034Z,102685.13
2019-04-11T23:06:01.879Z,102683.30
2019-04-11T23:08:32.017Z,102684.14
2019-04-11T23:11:01.406Z,102686.77
2019-04-11T23:13:32.049Z,102688.36
2019-04-11T23:16:03.973Z,102684.69
2019-04-11T23:18:33.070Z,102686.94
2019-04-11T23:21:01.927Z,102689.52
2019-04-11T23:23:30.913Z,102685.89
2019-04-11T23:26:00.513Z,102688.15
2019-04-11T23:28:29.561Z,102682.89
2019-04-11T23:30:58.564Z,102682.89
2019-04-11T23:33:27.307Z,102681.48
2019-04-11T23:35:56.170Z,102683.64
2019-04-11T23:38:25.160Z,102684.58
2019-04-11T23:40:54.010Z,102688.10
2019-04-11T23:43:22.818Z,102688.15
2019-04-11T23:45:52.250Z,102694.34
2019-04-11T23:48:23.737Z,102688.68
2019-04-11T23:50:54.790Z,102685.16
2019-04-11T23:53:28.287Z,102684.73
2019-04-11T23:55:59.830Z,102686.09
2019-04-11T23:58:26.706Z,102681.30
